createdAt,value
2018-12-19T00:01:06.446Z,5.50
2018-12-19T00:03:35.035Z,5.50
2018-12-19T00:06:03.576Z,5.40
2018-12-19T00:08:32.136Z,5.40
2018-12-19T00:11:00.700Z,5.40
2018-12-19T00:13:29.237Z,5.40
2018-12-19T00:15:57.757Z,5.40
2018-12-19T00:18:26.334Z,5.30
2018-12-19T00:20:54.880Z,5.20
2018-12-19T00:23:23.444Z,5.20
2018-12-19T00:25:51.983Z,5.20
2018-12-19T00:28:20.500Z,5.10
2018-12-19T00:30:49.044Z,5.10
2018-12-19T00:33:17.555Z,5.00
2018-12-19T00:35:46.101Z,5.00
2018-12-19T00:38:14.761Z,5.00
2018-12-19T00:40:43.259Z,5.00
2018-12-19T00:43:11.780Z,5.00
2018-12-19T00:45:40.348Z,5.00
2018-12-19T00:48:08.925Z,5.00
2018-12-19T00:50:37.481Z,5.00
2018-12-19T00:53:06.012Z,5.00
2018-12-19T00:55:34.690Z,5.00
2018-12-19T00:58:03.241Z,5.00
2018-12-19T01:00:31.791Z,5.00
2018-12-19T01:03:00.422Z,5.00
2018-12-19T01:05:29.006Z,5.00
2018-12-19T01:07:57.527Z,5.00
2018-12-19T01:10:26.214Z,4.90
2018-12-19T01:12:54.876Z,5.00
2018-12-19T01:15:23.469Z,5.00
2018-12-19T01:17:51.990Z,5.00
2018-12-19T01:20:20.515Z,5.00
2018-12-19T01:22:49.060Z,5.00
2018-12-19T01:25:17.615Z,5.00
2018-12-19T01:27:46.133Z,5.00
2018-12-19T01:30:14.848Z,5.00
2018-12-19T01:32:43.409Z,5.10
2018-12-19T01:35:11.953Z,5.00
2018-12-19T01:37:40.507Z,5.10
2018-12-19T01:40:09.048Z,5.10
2018-12-19T01:42:37.612Z,5.10
2018-12-19T01:45:06.591Z,5.10
2018-12-19T01:47:35.136Z,5.10
2018-12-19T01:50:03.993Z,5.10
2018-12-19T01:52:32.535Z,5.10
2018-12-19T01:55:01.128Z,5.20
2018-12-19T01:57:29.692Z,5.20
2018-12-19T01:59:58.203Z,5.20
2018-12-19T02:02:26.816Z,5.20
2018-12-19T02:04:55.336Z,5.20
2018-12-19T02:07:23.939Z,5.20
2018-12-19T02:09:52.491Z,5.20
2018-12-19T02:12:21.045Z,5.20
2018-12-19T02:14:49.561Z,5.20
2018-12-19T02:17:18.099Z,5.20
2018-12-19T02:19:46.685Z,5.10
2018-12-19T02:22:15.267Z,5.10
2018-12-19T02:24:43.839Z,5.20
2018-12-19T02:27:12.492Z,5.20
2018-12-19T02:29:41.043Z,5.20
2018-12-19T02:32:09.707Z,5.20
2018-12-19T02:34:38.314Z,5.10
2018-12-19T02:37:06.835Z,5.20
2018-12-19T02:39:36.350Z,5.10
2018-12-19T02:42:05.101Z,5.20
2018-12-19T02:44:33.718Z,5.20
2018-12-19T02:47:02.301Z,5.20
2018-12-19T02:49:30.860Z,5.20
2018-12-19T02:51:59.526Z,5.20
2018-12-19T02:54:28.072Z,5.20
2018-12-19T02:56:56.701Z,5.10
2018-12-19T02:59:25.281Z,5.10
2018-12-19T03:01:53.968Z,5.10
2018-12-19T03:04:22.495Z,5.10
2018-12-19T03:06:51.020Z,5.10
2018-12-19T03:09:19.563Z,5.10
2018-12-19T03:11:48.097Z,5.00
2018-12-19T03:14:16.681Z,5.10
2018-12-19T03:16:45.223Z,5.10
2018-12-19T03:19:13.805Z,5.10
2018-12-19T03:21:42.349Z,5.10
2018-12-19T03:24:10.975Z,5.20
2018-12-19T03:26:39.506Z,5.20
2018-12-19T03:29:08.061Z,5.20
2018-12-19T03:31:36.601Z,5.30
2018-12-19T03:34:05.416Z,5.30
2018-12-19T03:36:33.970Z,5.40
2018-12-19T03:39:02.662Z,5.40
2018-12-19T03:41:31.342Z,5.40
2018-12-19T03:43:59.887Z,5.50
2018-12-19T03:46:28.512Z,5.50
2018-12-19T03:48:57.582Z,5.50
2018-12-19T03:51:26.166Z,5.50
2018-12-19T03:53:54.741Z,5.50
2018-12-19T03:56:23.320Z,5.50
2018-12-19T03:58:51.827Z,5.60
2018-12-19T04:01:20.380Z,5.50
2018-12-19T04:03:49.002Z,5.50
2018-12-19T04:06:17.682Z,5.40
2018-12-19T04:08:46.336Z,5.40
2018-12-19T04:11:15.016Z,5.30
2018-12-19T04:13:43.563Z,5.20
2018-12-19T04:16:12.132Z,5.20
2018-12-19T04:18:40.712Z,5.20
2018-12-19T04:21:09.261Z,5.20
2018-12-19T04:23:37.917Z,5.30
2018-12-19T04:26:06.518Z,5.40
2018-12-19T04:28:35.078Z,5.30
2018-12-19T04:31:03.703Z,5.40
2018-12-19T04:33:32.265Z,5.40
2018-12-19T04:36:00.841Z,5.50
2018-12-19T04:38:29.532Z,5.50
2018-12-19T04:40:58.089Z,5.50
2018-12-19T04:43:26.702Z,5.50
2018-12-19T04:45:55.373Z,5.50
2018-12-19T04:48:23.955Z,5.50
2018-12-19T04:50:52.497Z,5.50
2018-12-19T04:53:21.056Z,5.60
2018-12-19T04:55:49.607Z,5.60
2018-12-19T04:58:18.186Z,5.60
2018-12-19T05:00:46.727Z,5.60
2018-12-19T05:03:15.267Z,5.70
2018-12-19T05:05:43.835Z,5.70
2018-12-19T05:08:12.384Z,5.70
2018-12-19T05:10:40.944Z,5.70
2018-12-19T05:13:09.475Z,5.80
2018-12-19T05:15:38.043Z,5.70
2018-12-19T05:18:06.572Z,5.80
2018-12-19T05:20:35.120Z,5.80
2018-12-19T05:23:03.671Z,5.80
2018-12-19T05:25:32.238Z,5.80
2018-12-19T05:28:00.778Z,5.90
2018-12-19T05:30:29.361Z,5.90
2018-12-19T05:32:57.876Z,5.90
2018-12-19T05:35:26.441Z,5.90
2018-12-19T05:37:55.010Z,6.00
2018-12-19T05:40:23.768Z,6.00
2018-12-19T05:42:52.315Z,6.10
2018-12-19T05:45:20.840Z,6.10
2018-12-19T05:47:49.376Z,6.10
2018-12-19T05:50:19.595Z,6.10
2018-12-19T05:52:48.132Z,6.10
2018-12-19T05:55:16.664Z,6.20
2018-12-19T05:57:45.643Z,6.20
2018-12-19T06:00:14.365Z,6.20
2018-12-19T06:02:42.924Z,6.20
2018-12-19T06:05:11.467Z,6.20
2018-12-19T06:07:40.030Z,6.30
2018-12-19T06:10:08.939Z,6.30
2018-12-19T06:12:37.504Z,6.30
2018-12-19T06:15:06.091Z,6.30
2018-12-19T06:17:34.655Z,6.30
2018-12-19T06:20:03.439Z,6.30
2018-12-19T06:22:31.957Z,6.30
2018-12-19T06:25:00.506Z,6.30
2018-12-19T06:27:29.035Z,6.30
2018-12-19T06:29:57.587Z,6.30
2018-12-19T06:32:26.141Z,6.30
2018-12-19T06:34:54.704Z,6.30
2018-12-19T06:37:23.252Z,6.30
2018-12-19T06:39:51.820Z,6.30
2018-12-19T06:42:20.348Z,6.40
2018-12-19T06:44:48.914Z,6.40
2018-12-19T06:47:17.435Z,6.50
2018-12-19T06:49:46.047Z,6.50
2018-12-19T06:52:14.604Z,6.60
2018-12-19T06:54:43.224Z,6.60
2018-12-19T06:57:11.869Z,6.60
2018-12-19T07:00:01.004Z,6.60
2018-12-19T07:02:29.584Z,6.60
2018-12-19T07:04:58.150Z,6.50
2018-12-19T07:07:26.696Z,6.50
2018-12-19T07:09:55.224Z,6.60
2018-12-19T07:12:23.765Z,6.60
2018-12-19T07:14:52.440Z,6.60
2018-12-19T07:17:20.995Z,6.60
2018-12-19T07:19:49.581Z,6.60
2018-12-19T07:22:18.147Z,6.60
2018-12-19T07:24:55.109Z,6.60
2018-12-19T07:27:23.655Z,6.60
2018-12-19T07:29:52.163Z,6.60
2018-12-19T07:32:20.787Z,6.60
2018-12-19T07:34:49.300Z,6.60
2018-12-19T07:37:17.849Z,6.60
2018-12-19T07:39:46.396Z,6.60
2018-12-19T07:42:14.956Z,6.60
2018-12-19T07:44:43.485Z,6.60
2018-12-19T07:47:12.054Z,6.60
2018-12-19T07:49:40.609Z,6.60
2018-12-19T07:52:09.195Z,6.60
2018-12-19T07:54:37.729Z,6.60
2018-12-19T07:57:06.428Z,6.60
2018-12-19T07:59:34.948Z,6.60
2018-12-19T08:02:03.504Z,6.60
2018-12-19T08:04:32.222Z,6.60
2018-12-19T08:07:00.824Z,6.70
2018-12-19T08:09:29.347Z,6.70
2018-12-19T08:11:58.594Z,6.70
2018-12-19T08:14:27.165Z,6.70
2018-12-19T08:16:55.702Z,6.70
2018-12-19T08:19:24.271Z,6.80
2018-12-19T08:21:52.844Z,6.80
2018-12-19T08:24:21.375Z,6.80
2018-12-19T08:26:49.948Z,6.80
2018-12-19T08:29:18.519Z,6.80
2018-12-19T08:31:47.036Z,6.90
2018-12-19T08:34:15.839Z,6.90
2018-12-19T08:36:44.749Z,6.90
2018-12-19T08:39:13.451Z,6.90
2018-12-19T08:41:42.149Z,6.90
2018-12-19T08:44:10.720Z,6.90
2018-12-19T08:46:39.264Z,6.90
2018-12-19T08:49:07.829Z,7.00
2018-12-19T08:51:36.369Z,7.00
2018-12-19T08:54:04.965Z,7.00
2018-12-19T08:56:33.515Z,7.00
2018-12-19T08:59:02.640Z,7.00
2018-12-19T09:01:31.204Z,7.10
2018-12-19T09:03:59.798Z,7.10
2018-12-19T09:06:28.329Z,7.20
2018-12-19T09:08:56.878Z,7.20
2018-12-19T09:11:25.410Z,7.20
2018-12-19T09:13:54.499Z,7.30
2018-12-19T09:16:23.053Z,7.30
2018-12-19T09:18:51.598Z,7.30
2018-12-19T09:21:20.115Z,7.40
2018-12-19T09:23:48.679Z,7.50
2018-12-19T09:26:17.187Z,7.50
2018-12-19T09:28:45.746Z,7.50
2018-12-19T09:31:14.387Z,7.50
2018-12-19T09:33:42.913Z,7.50
2018-12-19T09:36:11.489Z,7.50
2018-12-19T09:38:40.962Z,7.50
2018-12-19T09:41:12.520Z,7.50
2018-12-19T09:43:40.304Z,7.50
2018-12-19T09:46:08.844Z,7.60
2018-12-19T09:48:37.368Z,7.60
2018-12-19T09:51:06.069Z,7.70
2018-12-19T09:53:34.855Z,7.60
2018-12-19T09:56:03.432Z,7.70
2018-12-19T09:58:31.965Z,7.70
2018-12-19T10:01:01.984Z,7.80
2018-12-19T10:03:30.677Z,7.80
2018-12-19T10:05:59.252Z,7.80
2018-12-19T10:08:27.764Z,7.80
2018-12-19T10:10:56.297Z,7.80
2018-12-19T10:13:24.925Z,7.80
2018-12-19T10:15:53.489Z,7.90
2018-12-19T10:18:22.019Z,8.00
2018-12-19T10:20:50.544Z,8.00
2018-12-19T10:23:19.116Z,8.10
2018-12-19T10:25:51.888Z,8.20
2018-12-19T10:28:24.647Z,8.20
2018-12-19T10:30:53.186Z,8.40
2018-12-19T10:33:21.747Z,8.70
2018-12-19T10:35:50.298Z,9.10
2018-12-19T10:38:18.856Z,9.60
2018-12-19T10:40:47.377Z,9.90
2018-12-19T10:43:15.932Z,10.30
2018-12-19T10:45:44.503Z,10.40
2018-12-19T10:48:13.030Z,10.60
2018-12-19T10:50:41.576Z,11.00
2018-12-19T10:53:10.121Z,11.10
2018-12-19T10:55:38.692Z,11.20
2018-12-19T10:58:07.245Z,11.40
2018-12-19T11:00:41.097Z,11.40
2018-12-19T11:03:09.764Z,11.50
2018-12-19T11:05:38.335Z,11.80
2018-12-19T11:08:07.400Z,12.10
2018-12-19T11:10:36.065Z,12.10
2018-12-19T11:13:04.780Z,12.20
2018-12-19T11:15:33.349Z,12.60
2018-12-19T11:18:01.900Z,12.90
2018-12-19T11:20:30.503Z,13.00
2018-12-19T11:22:59.111Z,13.00
2018-12-19T11:25:27.654Z,12.90
2018-12-19T11:27:56.247Z,13.30
2018-12-19T11:30:24.899Z,13.40
2018-12-19T11:32:53.438Z,13.70
2018-12-19T11:35:21.996Z,13.50
2018-12-19T11:37:50.531Z,13.30
2018-12-19T11:40:19.100Z,12.80
2018-12-19T11:42:47.631Z,12.60
2018-12-19T11:45:16.208Z,12.10
2018-12-19T11:47:44.831Z,11.70
2018-12-19T11:50:13.453Z,11.40
2018-12-19T11:52:42.027Z,11.10
2018-12-19T11:55:10.612Z,10.80
2018-12-19T11:57:39.418Z,10.70
2018-12-19T12:00:09.364Z,10.60
2018-12-19T12:02:37.932Z,10.40
2018-12-19T12:05:06.716Z,10.30
2018-12-19T12:07:35.412Z,10.10
2018-12-19T12:10:04.684Z,9.90
2018-12-19T12:12:33.204Z,9.90
2018-12-19T12:15:01.777Z,9.80
2018-12-19T12:17:30.296Z,9.80
2018-12-19T12:19:58.865Z,9.60
2018-12-19T12:22:27.593Z,9.60
2018-12-19T12:24:56.208Z,9.60
2018-12-19T12:27:24.724Z,9.60
2018-12-19T12:29:53.292Z,9.60
2018-12-19T12:32:21.894Z,9.60
2018-12-19T12:34:50.441Z,9.60
2018-12-19T12:37:18.991Z,9.60
2018-12-19T12:39:47.524Z,9.60
2018-12-19T12:42:16.096Z,9.70
2018-12-19T12:44:44.843Z,9.70
2018-12-19T12:47:14.005Z,9.60
2018-12-19T12:49:42.542Z,9.70
2018-12-19T12:52:11.090Z,9.60
2018-12-19T12:54:39.620Z,9.60
2018-12-19T12:57:08.188Z,9.60
2018-12-19T12:59:36.700Z,9.60
2018-12-19T13:02:05.249Z,9.60
2018-12-19T13:04:33.797Z,9.50
2018-12-19T13:07:02.408Z,9.50
2018-12-19T13:09:31.000Z,9.50
2018-12-19T13:11:59.575Z,9.50
2018-12-19T13:14:28.228Z,9.60
2018-12-19T13:16:56.764Z,9.50
2018-12-19T13:19:25.341Z,9.60
2018-12-19T13:21:53.872Z,9.60
2018-12-19T13:24:22.400Z,9.60
2018-12-19T13:26:50.970Z,9.60
2018-12-19T13:29:19.499Z,9.70
2018-12-19T13:31:48.301Z,9.70
2018-12-19T13:34:16.863Z,9.70
2018-12-19T13:36:45.427Z,9.80
2018-12-19T13:39:13.971Z,9.80
2018-12-19T13:41:42.532Z,9.80
2018-12-19T13:44:11.096Z,9.80
2018-12-19T13:46:39.687Z,10.10
2018-12-19T13:49:08.231Z,10.40
2018-12-19T13:51:36.835Z,10.60
2018-12-19T13:54:05.392Z,10.80
2018-12-19T13:56:33.989Z,10.70
2018-12-19T13:59:02.867Z,10.60
2018-12-19T14:01:31.429Z,10.60
2018-12-19T14:03:59.992Z,10.90
2018-12-19T14:06:28.564Z,11.00
2018-12-19T14:08:57.117Z,11.10
2018-12-19T14:11:25.698Z,11.10
2018-12-19T14:13:54.250Z,11.00
2018-12-19T14:16:24.191Z,10.70
2018-12-19T14:18:52.902Z,10.90
2018-12-19T14:21:21.489Z,10.80
2018-12-19T14:23:50.016Z,10.60
2018-12-19T14:26:18.595Z,10.30
2018-12-19T14:28:47.191Z,10.30
2018-12-19T14:31:15.762Z,10.10
2018-12-19T14:33:44.287Z,9.90
2018-12-19T14:36:12.832Z,9.80
2018-12-19T14:38:42.750Z,9.70
2018-12-19T14:41:11.627Z,9.60
2018-12-19T14:43:40.165Z,9.50
2018-12-19T14:46:08.715Z,9.50
2018-12-19T14:48:37.284Z,9.40
2018-12-19T14:51:06.134Z,9.30
2018-12-19T14:53:34.682Z,9.30
2018-12-19T14:56:03.245Z,9.30
2018-12-19T14:58:31.796Z,9.30
2018-12-19T15:01:00.388Z,9.30
2018-12-19T15:03:28.937Z,9.20
2018-12-19T15:05:57.520Z,9.30
2018-12-19T15:08:26.060Z,9.10
2018-12-19T15:10:54.686Z,9.10
2018-12-19T15:13:23.213Z,9.00
2018-12-19T15:15:57.221Z,9.00
2018-12-19T15:18:26.493Z,9.00
2018-12-19T15:20:55.149Z,9.00
2018-12-19T15:23:23.756Z,9.00
2018-12-19T15:25:52.357Z,9.00
2018-12-19T15:28:20.922Z,9.00
2018-12-19T15:30:49.493Z,8.90
2018-12-19T15:33:18.055Z,8.90
2018-12-19T15:35:46.599Z,9.00
2018-12-19T15:38:15.198Z,8.90
2018-12-19T15:40:43.774Z,8.90
2018-12-19T15:43:12.381Z,8.90
2018-12-19T15:45:40.932Z,8.90
2018-12-19T15:48:09.517Z,8.90
2018-12-19T15:50:38.116Z,8.90
2018-12-19T15:53:06.651Z,9.00
2018-12-19T15:55:35.647Z,8.90
2018-12-19T15:58:04.211Z,8.90
2018-12-19T16:00:32.934Z,8.90
2018-12-19T16:03:01.557Z,8.90
2018-12-19T16:05:30.246Z,8.90
2018-12-19T16:07:58.800Z,8.90
2018-12-19T16:10:27.435Z,8.90
2018-12-19T16:12:55.968Z,8.90
2018-12-19T16:15:24.516Z,8.90
2018-12-19T16:17:53.136Z,8.90
2018-12-19T16:20:21.696Z,8.90
2018-12-19T16:22:50.359Z,8.80
2018-12-19T16:25:18.887Z,8.90
2018-12-19T16:27:47.442Z,8.90
2018-12-19T16:30:15.995Z,8.90
2018-12-19T16:32:44.588Z,8.80
2018-12-19T16:35:13.296Z,8.70
2018-12-19T16:37:41.849Z,8.70
2018-12-19T16:40:10.633Z,8.60
2018-12-19T16:42:45.901Z,8.60
2018-12-19T16:45:09.824Z,8.50
2018-12-19T16:47:38.434Z,8.50
2018-12-19T16:50:07.629Z,8.50
2018-12-19T16:52:36.290Z,8.50
2018-12-19T16:55:04.903Z,8.50
2018-12-19T16:57:33.451Z,8.50
2018-12-19T17:00:02.037Z,8.30
2018-12-19T17:02:30.588Z,8.20
2018-12-19T17:04:59.199Z,8.20
2018-12-19T17:07:27.825Z,8.10
2018-12-19T17:09:56.443Z,8.10
2018-12-19T17:12:24.987Z,8.10
2018-12-19T17:14:53.572Z,8.10
2018-12-19T17:17:22.261Z,8.10
2018-12-19T17:19:50.979Z,8.10
2018-12-19T17:22:19.518Z,8.10
2018-12-19T17:24:48.070Z,8.10
2018-12-19T17:27:16.613Z,8.10
2018-12-19T17:29:45.157Z,8.20
2018-12-19T17:32:13.781Z,8.20
2018-12-19T17:34:42.304Z,8.20
2018-12-19T17:37:10.859Z,8.20
2018-12-19T17:39:39.417Z,8.20
2018-12-19T17:42:08.001Z,8.20
2018-12-19T17:44:36.536Z,8.10
2018-12-19T17:47:05.198Z,8.20
2018-12-19T17:49:33.763Z,8.10
2018-12-19T17:52:02.454Z,8.10
2018-12-19T17:54:31.038Z,8.10
2018-12-19T17:56:59.723Z,8.10
2018-12-19T17:59:28.320Z,8.20
2018-12-19T18:01:56.901Z,8.10
2018-12-19T18:04:25.543Z,8.20
2018-12-19T18:06:54.115Z,8.20
2018-12-19T18:09:23.093Z,8.20
2018-12-19T18:11:51.651Z,8.20
2018-12-19T18:14:20.314Z,8.10
2018-12-19T18:16:48.943Z,8.20
2018-12-19T18:19:23.214Z,8.20
2018-12-19T18:21:48.087Z,8.20
2018-12-19T18:24:16.756Z,8.20
2018-12-19T18:26:46.223Z,8.20
2018-12-19T18:29:14.838Z,8.20
2018-12-19T18:31:43.349Z,8.10
2018-12-19T18:34:11.883Z,8.10
2018-12-19T18:36:40.459Z,8.10
2018-12-19T18:39:09.888Z,8.10
2018-12-19T18:41:38.477Z,8.10
2018-12-19T18:44:07.061Z,8.20
2018-12-19T18:46:35.760Z,8.20
2018-12-19T18:49:04.333Z,8.20
2018-12-19T18:51:32.873Z,8.10
2018-12-19T18:54:01.418Z,8.10
2018-12-19T18:56:29.948Z,8.10
2018-12-19T18:58:59.194Z,8.20
2018-12-19T19:01:27.836Z,8.10
2018-12-19T19:03:56.417Z,8.10
2018-12-19T19:06:25.051Z,8.00
2018-12-19T19:08:53.810Z,8.10
2018-12-19T19:11:23.165Z,8.00
2018-12-19T19:13:51.711Z,8.00
2018-12-19T19:16:20.381Z,8.10
2018-12-19T19:18:49.138Z,8.00
2018-12-19T19:21:17.818Z,8.10
2018-12-19T19:23:46.415Z,8.10
2018-12-19T19:26:14.991Z,8.00
2018-12-19T19:28:47.425Z,8.10
2018-12-19T19:31:15.984Z,8.10
2018-12-19T19:33:44.524Z,8.10
2018-12-19T19:36:13.139Z,8.00
2018-12-19T19:38:41.754Z,8.00
2018-12-19T19:41:10.471Z,8.00
2018-12-19T19:43:39.220Z,7.90
2018-12-19T19:46:07.819Z,7.90
2018-12-19T19:48:36.413Z,7.90
2018-12-19T19:51:05.008Z,7.90
2018-12-19T19:53:33.575Z,8.00
2018-12-19T19:56:02.246Z,7.90
2018-12-19T19:58:30.792Z,7.90
2018-12-19T20:00:59.393Z,7.80
2018-12-19T20:03:27.968Z,7.80
2018-12-19T20:05:56.555Z,7.80
2018-12-19T20:08:25.161Z,7.80
2018-12-19T20:10:53.765Z,7.90
2018-12-19T20:13:23.420Z,7.80
2018-12-19T20:15:52.187Z,7.80
2018-12-19T20:18:20.840Z,7.80
2018-12-19T20:20:49.499Z,7.70
2018-12-19T20:23:18.044Z,7.70
2018-12-19T20:25:46.607Z,7.70
2018-12-19T20:28:15.292Z,7.70
2018-12-19T20:30:43.984Z,7.80
2018-12-19T20:33:12.637Z,7.80
2018-12-19T20:35:41.173Z,7.80
2018-12-19T20:38:09.789Z,7.80
2018-12-19T20:40:38.374Z,7.80
2018-12-19T20:43:10.047Z,7.70
2018-12-19T20:45:38.592Z,7.70
2018-12-19T20:48:07.202Z,7.70
2018-12-19T20:50:35.780Z,7.80
2018-12-19T20:53:04.519Z,7.80
2018-12-19T20:55:33.064Z,7.80
2018-12-19T20:58:01.713Z,7.80
2018-12-19T21:00:30.399Z,7.80
2018-12-19T21:02:58.925Z,7.80
2018-12-19T21:05:27.631Z,7.80
2018-12-19T21:07:56.205Z,7.80
2018-12-19T21:10:24.863Z,7.80
2018-12-19T21:12:53.416Z,7.80
2018-12-19T21:15:21.974Z,7.80
2018-12-19T21:17:56.028Z,7.80
2018-12-19T21:20:24.559Z,7.80
2018-12-19T21:22:53.111Z,7.70
2018-12-19T21:25:21.716Z,7.80
2018-12-19T21:27:50.268Z,7.80
2018-12-19T21:30:18.828Z,7.80
2018-12-19T21:32:47.409Z,7.80
2018-12-19T21:35:15.964Z,7.70
2018-12-19T21:37:44.498Z,7.80
2018-12-19T21:40:13.093Z,7.70
2018-12-19T21:42:41.672Z,7.70
2018-12-19T21:45:10.249Z,7.70
2018-12-19T21:47:38.800Z,7.60
2018-12-19T21:50:07.580Z,7.60
2018-12-19T21:52:36.239Z,7.60
2018-12-19T21:55:05.230Z,7.60
2018-12-19T21:57:33.743Z,7.60
2018-12-19T22:00:02.289Z,7.50
2018-12-19T22:02:30.906Z,7.50
2018-12-19T22:04:59.527Z,7.50
2018-12-19T22:07:28.114Z,7.40
2018-12-19T22:09:57.024Z,7.40
2018-12-19T22:12:25.585Z,7.40
2018-12-19T22:14:54.301Z,7.50
2018-12-19T22:17:28.319Z,7.50
2018-12-19T22:19:56.888Z,7.50
2018-12-19T22:22:25.471Z,7.50
2018-12-19T22:24:54.113Z,7.50
2018-12-19T22:27:22.653Z,7.50
2018-12-19T22:29:51.221Z,7.50
2018-12-19T22:32:19.806Z,7.50
2018-12-19T22:34:48.407Z,7.50
2018-12-19T22:37:17.032Z,7.50
2018-12-19T22:39:45.676Z,7.60
2018-12-19T22:42:14.368Z,7.60
2018-12-19T22:44:43.151Z,7.50
2018-12-19T22:47:11.718Z,7.40
2018-12-19T22:49:40.365Z,7.50
2018-12-19T22:52:09.035Z,7.50
2018-12-19T22:54:37.641Z,7.50
2018-12-19T22:57:06.353Z,7.40
2018-12-19T22:59:34.881Z,7.50
2018-12-19T23:02:09.077Z,7.40
2018-12-19T23:04:37.746Z,7.50
2018-12-19T23:07:06.396Z,7.40
2018-12-19T23:09:35.064Z,7.40
2018-12-19T23:12:03.826Z,7.40
2018-12-19T23:14:32.567Z,7.40
2018-12-19T23:17:05.378Z,7.30
2018-12-19T23:19:34.269Z,7.30
2018-12-19T23:22:02.821Z,7.30
2018-12-19T23:24:31.593Z,7.30
2018-12-19T23:27:00.262Z,7.30
2018-12-19T23:29:28.852Z,7.30
2018-12-19T23:31:57.395Z,7.30
2018-12-19T23:34:26.114Z,7.30
2018-12-19T23:36:54.766Z,7.30
2018-12-19T23:39:23.322Z,7.20
2018-12-19T23:41:51.885Z,7.20
2018-12-19T23:44:25.593Z,7.10
2018-12-19T23:46:54.500Z,7.10
2018-12-19T23:49:23.094Z,7.00
2018-12-19T23:51:51.626Z,7.00
2018-12-19T23:54:20.467Z,7.00
2018-12-19T23:56:49.238Z,7.00
2018-12-19T23:59:17.932Z,7.00
